Time;durP1;ratioP1;P1;durP2;ratioP2;P2;SDS_P1;SDS_P2;PMS_P1;PMS_P2;Temp;Humidity;BMP_temperature;BMP_pressure;BME280_temperature;BME280_humidity;BME280_pressure;Samples;Min_cycle;Max_cycle;Signal;HPM_P1;HPM_P2
2022/11/06 00:00:08;;;;;;;7.73;5.13;;;;;;;-145.14;100.00;70583.66;5019513;28;20930;-78
2022/11/06 00:02:33;;;;;;;6.97;4.77;;;;;;;-145.14;100.00;70583.66;5002629;28;20865;-78
2022/11/06 00:07:54;;;;;;;15.70;4.83;;;;;;;-145.14;100.00;70583.66;5015983;28;20187;-77
2022/11/06 00:10:27;;;;;;;8.77;4.20;;;;;;;-145.14;100.00;70583.66;5014404;28;20856;-78
2022/11/06 00:12:55;;;;;;;11.80;5.60;;;;;;;-145.14;100.00;70583.66;5016019;28;20999;-79
2022/11/06 00:15:20;;;;;;;9.03;5.07;;;;;;;-145.14;100.00;70583.66;5013602;28;20537;-78
2022/11/06 00:17:49;;;;;;;8.07;4.53;;;;;;;-145.14;100.00;70583.66;5015895;28;20460;-77
2022/11/06 00:20:15;;;;;;;7.77;5.13;;;;;;;-145.14;100.00;70583.66;5017783;28;20215;-78
2022/11/06 00:22:45;;;;;;;8.93;5.10;;;;;;;-145.14;100.00;70583.66;5016180;28;20447;-77
2022/11/06 00:25:11;;;;;;;9.57;5.17;;;;;;;-145.14;100.00;70583.66;5015290;28;20435;-77
2022/11/06 00:27:42;;;;;;;7.53;4.60;;;;;;;-145.14;100.00;70583.66;5001333;28;20451;-78
2022/11/06 00:30:12;;;;;;;7.90;4.90;;;;;;;-145.14;100.00;70583.66;4997168;28;20239;-78
2022/11/06 00:32:40;;;;;;;9.83;5.27;;;;;;;-145.14;100.00;70583.66;5016746;28;20431;-78
2022/11/06 00:35:08;;;;;;;9.10;4.43;;;;;;;-145.14;100.00;70583.66;5014953;28;20474;-78
2022/11/06 00:37:36;;;;;;;8.40;5.60;;;;;;;-145.14;100.00;70583.66;5010740;28;22185;-77
2022/11/06 00:40:02;;;;;;;11.73;5.40;;;;;;;-145.14;100.00;70583.66;5014858;28;20466;-78
2022/11/06 00:42:35;;;;;;;10.63;4.80;;;;;;;-145.14;100.00;70583.66;4995879;28;20446;-78
2022/11/06 00:45:03;;;;;;;10.50;4.73;;;;;;;-145.14;100.00;70583.66;4993008;28;20437;-78
2022/11/06 00:47:33;;;;;;;10.80;6.30;;;;;;;-145.14;100.00;70583.66;4998017;28;20796;-78
2022/11/06 00:50:02;;;;;;;15.67;5.50;;;;;;;-145.14;100.00;70583.66;5013298;28;20982;-77
2022/11/06 00:52:28;;;;;;;7.43;5.33;;;;;;;-145.14;100.00;70583.66;4996598;28;20468;-77
2022/11/06 00:54:54;;;;;;;11.80;5.47;;;;;;;-145.14;100.00;70583.66;5003173;28;20465;-78
2022/11/06 00:57:22;;;;;;;7.87;5.33;;;;;;;-145.14;100.00;70583.66;4999640;28;20443;-79
2022/11/06 00:59:47;;;;;;;11.10;5.20;;;;;;;-145.14;100.00;70583.66;5016297;28;21360;-79
2022/11/06 01:02:18;;;;;;;10.73;5.20;;;;;;;-145.14;100.00;70583.66;5015932;28;20458;-78
2022/11/06 01:04:46;;;;;;;8.30;5.00;;;;;;;-145.14;100.00;70583.66;5010675;28;20181;-77
2022/11/06 01:07:12;;;;;;;9.43;5.83;;;;;;;-145.14;100.00;70583.66;5014661;28;20581;-77
2022/11/06 01:09:37;;;;;;;7.07;5.00;;;;;;;-145.14;100.00;70583.66;5012412;28;20451;-78
2022/11/06 01:12:09;;;;;;;13.27;6.10;;;;;;;-145.14;100.00;70583.66;5015120;28;20692;-78
2022/11/06 01:14:35;;;;;;;9.67;6.00;;;;;;;-145.14;100.00;70583.66;5011854;28;20478;-78
2022/11/06 01:17:03;;;;;;;11.67;6.27;;;;;;;-145.14;100.00;70583.66;4997051;28;21202;-78
2022/11/06 01:19:30;;;;;;;15.83;6.03;;;;;;;-145.14;100.00;70583.66;5009186;28;20846;-78
2022/11/06 01:21:56;;;;;;;8.77;6.10;;;;;;;-145.14;100.00;70583.66;5014567;28;21071;-78
2022/11/06 01:24:24;;;;;;;10.60;6.20;;;;;;;-145.14;100.00;70583.66;5016960;28;20447;-78
2022/11/06 01:26:56;;;;;;;9.00;6.57;;;;;;;-145.14;100.00;70583.66;4999286;28;20562;-78
2022/11/06 01:29:27;;;;;;;8.83;6.30;;;;;;;-145.14;100.00;70583.66;5012852;28;20475;-78
2022/11/06 01:31:52;;;;;;;14.30;6.60;;;;;;;-145.14;100.00;70583.66;4994779;28;20437;-78
2022/11/06 01:34:20;;;;;;;11.17;6.63;;;;;;;-145.14;100.00;70583.66;4997704;28;20454;-78
2022/11/06 01:36:50;;;;;;;15.07;7.30;;;;;;;-145.14;100.00;70583.66;5015875;28;20213;-79
2022/11/06 01:39:18;;;;;;;11.40;6.50;;;;;;;-145.14;100.00;70583.66;5008471;28;20538;-78
2022/11/06 01:41:47;;;;;;;11.10;6.90;;;;;;;-145.14;100.00;70583.66;5015882;28;21053;-78
2022/11/06 01:44:34;;;;;;;13.17;6.57;;;;;;;-145.14;100.00;70583.66;5012729;28;20427;-78
2022/11/06 01:47:07;;;;;;;10.90;6.47;;;;;;;-145.14;100.00;70583.66;4994616;28;21179;-78
2022/11/06 01:49:37;;;;;;;13.20;7.20;;;;;;;-145.14;100.00;70583.66;5002235;28;20446;-78
2022/11/06 01:52:11;;;;;;;12.87;7.00;;;;;;;-145.14;100.00;70583.66;5015336;28;20431;-78
2022/11/06 01:54:41;;;;;;;11.97;7.00;;;;;;;-145.14;100.00;70583.66;4999554;28;20829;-79
2022/11/06 01:57:11;;;;;;;11.30;7.17;;;;;;;-145.14;100.00;70583.66;5015843;28;20448;-78
2022/11/06 01:59:41;;;;;;;9.53;6.70;;;;;;;-145.14;100.00;70583.66;5017069;28;21029;-78
2022/11/06 02:02:10;;;;;;;9.27;6.90;;;;;;;-145.14;100.00;70583.66;4999932;28;20490;-79
2022/11/06 02:04:40;;;;;;;13.83;7.47;;;;;;;-145.14;100.00;70583.66;5014981;28;20945;-79
2022/11/06 02:07:07;;;;;;;12.00;6.53;;;;;;;-145.14;100.00;70583.66;5011530;28;20439;-79
2022/11/06 02:09:33;;;;;;;9.67;6.60;;;;;;;-145.14;100.00;70583.66;5009653;28;20486;-78
2022/11/06 02:12:20;;;;;;;11.80;7.03;;;;;;;-145.14;100.00;70583.66;4991346;28;20442;-78
2022/11/06 02:15:01;;;;;;;13.70;7.70;;;;;;;-145.14;100.00;70583.66;5013885;28;20469;-78
2022/11/06 02:17:45;;;;;;;12.40;7.73;;;;;;;-145.14;100.00;70583.66;5017230;28;20526;-79
2022/11/06 02:20:16;;;;;;;12.93;7.20;;;;;;;-145.14;100.00;70583.66;5015273;28;20447;-79
2022/11/06 02:23:06;;;;;;;11.57;6.90;;;;;;;-145.14;100.00;70583.66;4996608;28;20439;-78
2022/11/06 02:25:52;;;;;;;10.50;7.37;;;;;;;-145.14;100.00;70583.66;5014950;28;20496;-78
2022/11/06 02:28:30;;;;;;;16.60;7.40;;;;;;;-145.14;100.00;70583.66;4993473;28;20500;-79
2022/11/06 02:31:02;;;;;;;13.00;7.60;;;;;;;-145.14;100.00;70583.66;5002875;28;20528;-79
2022/11/06 02:33:34;;;;;;;9.50;6.90;;;;;;;-145.14;100.00;70583.66;5001387;28;20677;-78
2022/11/06 02:36:07;;;;;;;16.27;6.50;;;;;;;-145.14;100.00;70583.66;5022843;28;20563;-79
2022/11/06 02:38:48;;;;;;;15.30;7.03;;;;;;;-145.14;100.00;70583.66;5021484;28;20833;-78
2022/11/06 02:41:20;;;;;;;12.27;7.60;;;;;;;-145.14;100.00;70583.66;5020135;28;20462;-79
2022/11/06 02:43:52;;;;;;;10.50;7.40;;;;;;;-145.14;100.00;70583.66;5019280;28;20442;-79
2022/11/06 02:46:24;;;;;;;13.73;6.70;;;;;;;-145.14;100.00;70583.66;5020395;28;20462;-78
2022/11/06 02:49:18;;;;;;;11.17;6.80;;;;;;;-145.14;100.00;70583.66;5015698;28;20553;-79
2022/11/06 02:51:52;;;;;;;14.60;7.17;;;;;;;-145.14;100.00;70583.66;5002905;28;20461;-79
2022/11/06 02:54:24;;;;;;;11.70;7.03;;;;;;;-145.14;100.00;70583.66;5002099;28;21021;-79
2022/11/06 02:56:54;;;;;;;9.17;7.07;;;;;;;-145.14;100.00;70583.66;5015137;28;20440;-77
2022/11/06 02:59:34;;;;;;;12.00;6.67;;;;;;;-145.14;100.00;70583.66;5018042;28;20438;-79
2022/11/06 03:02:04;;;;;;;12.83;7.43;;;;;;;-145.14;100.00;70583.66;5015796;28;20465;-79
2022/11/06 03:04:36;;;;;;;12.27;6.93;;;;;;;-145.14;100.00;70583.66;5005307;28;20435;-79
2022/11/06 03:07:07;;;;;;;12.00;7.07;;;;;;;-145.14;100.00;70583.66;5019466;28;20443;-79
2022/11/06 03:09:36;;;;;;;12.83;7.40;;;;;;;-145.14;100.00;70583.66;5012005;28;20447;-79
2022/11/06 03:12:42;;;;;;;11.87;7.93;;;;;;;-145.14;100.00;70583.66;5028807;28;20442;-79
2022/11/06 03:15:08;;;;;;;16.43;7.97;;;;;;;-145.14;100.00;70583.66;4998302;28;20470;-79
2022/11/06 03:17:50;;;;;;;12.43;7.50;;;;;;;-145.14;100.00;70583.66;5001039;28;20443;-78
2022/11/06 03:20:22;;;;;;;14.37;7.23;;;;;;;-145.14;100.00;70583.66;5013104;28;20458;-79
2022/11/06 03:23:04;;;;;;;16.00;8.17;;;;;;;-145.14;100.00;70583.66;5013164;28;21017;-78
2022/11/06 03:26:14;;;;;;;14.57;8.37;;;;;;;-145.14;100.00;70583.66;5003276;28;20446;-78
2022/11/06 03:28:51;;;;;;;9.03;6.83;;;;;;;-145.14;100.00;70583.66;5000737;28;20442;-79
2022/11/06 03:31:23;;;;;;;16.47;8.20;;;;;;;-145.14;100.00;70583.66;5021335;28;20458;-79
2022/11/06 03:34:00;;;;;;;9.90;7.37;;;;;;;-145.14;100.00;70583.66;5006086;28;20471;-78
2022/11/06 03:36:38;;;;;;;10.90;7.37;;;;;;;-145.14;100.00;70583.66;5001391;28;20450;-78
2022/11/06 03:39:33;;;;;;;12.40;7.97;;;;;;;-145.14;100.00;70583.66;5017323;28;20446;-79
2022/11/06 03:42:24;;;;;;;10.27;7.57;;;;;;;-145.14;100.00;70583.66;5000382;28;21367;-79
2022/11/06 03:45:04;;;;;;;11.80;7.63;;;;;;;-145.14;100.00;70583.66;4998710;28;20583;-79
2022/11/06 03:47:39;;;;;;;9.43;7.60;;;;;;;-145.14;100.00;70583.66;5003980;28;20451;-79
2022/11/06 03:50:22;;;;;;;11.17;7.10;;;;;;;-145.14;100.00;70583.66;5015678;28;20465;-79
2022/11/06 03:53:02;;;;;;;9.20;6.67;;;;;;;-145.14;100.00;70583.66;5018136;28;20443;-79
2022/11/06 03:55:34;;;;;;;15.77;7.60;;;;;;;-145.14;100.00;70583.66;5000078;28;20466;-79
2022/11/06 03:58:09;;;;;;;11.63;7.40;;;;;;;-145.14;100.00;70583.66;5014325;28;21318;-78
2022/11/06 04:00:39;;;;;;;10.77;7.80;;;;;;;-145.14;100.00;70583.66;5016501;28;20573;-78
2022/11/06 04:03:23;;;;;;;14.97;8.27;;;;;;;-145.14;100.00;70583.66;5015561;28;20448;-79
2022/11/06 04:06:00;;;;;;;8.90;7.30;;;;;;;-145.14;100.00;70583.66;5025850;28;20433;-79
2022/11/06 04:14:14;;;;;;;10.50;7.00;;;;;;;-145.14;100.00;70583.66;5027616;28;21014;-78
2022/11/06 04:16:56;;;;;;;11.07;7.50;;;;;;;-145.14;100.00;70583.66;4998396;28;20451;-78
2022/11/06 04:19:25;;;;;;;12.50;6.83;;;;;;;-145.14;100.00;70583.66;4995891;28;20435;-79
2022/11/06 04:22:14;;;;;;;7.67;6.40;;;;;;;-145.14;100.00;70583.66;4991737;28;20443;-78
2022/11/06 04:27:59;;;;;;;10.27;6.30;;;;;;;-145.14;100.00;70583.66;5001623;28;21309;-79
2022/11/06 04:30:32;;;;;;;11.30;7.60;;;;;;;-145.14;100.00;70583.66;4983954;28;20494;-78
2022/11/06 04:33:06;;;;;;;12.30;5.97;;;;;;;-145.14;100.00;70583.66;5001653;28;20492;-79
2022/11/06 04:36:03;;;;;;;10.50;6.43;;;;;;;-145.14;100.00;70583.66;4985654;28;20521;-79
2022/11/06 04:38:48;;;;;;;10.90;6.50;;;;;;;-145.14;100.00;70583.66;5008077;28;20435;-78
2022/11/06 04:41:33;;;;;;;11.87;6.87;;;;;;;-145.14;100.00;70583.66;5007522;28;20461;-78
2022/11/06 04:44:08;;;;;;;13.43;7.80;;;;;;;-145.14;100.00;70583.66;5008974;28;20427;-79
2022/11/06 04:46:45;;;;;;;9.87;6.40;;;;;;;-145.14;100.00;70583.66;5004646;28;21620;-79
2022/11/06 04:49:15;;;;;;;12.47;6.13;;;;;;;-145.14;100.00;70583.66;4989432;28;20474;-79
2022/11/06 04:51:48;;;;;;;9.70;6.47;;;;;;;-145.14;100.00;70583.66;5008814;28;22730;-79
2022/11/06 04:54:20;;;;;;;11.40;5.67;;;;;;;-145.14;100.00;70583.66;4985082;28;20522;-78
2022/11/06 04:56:47;;;;;;;11.00;6.50;;;;;;;-145.14;100.00;70583.66;5000755;28;20431;-79
2022/11/06 04:59:21;;;;;;;12.00;6.53;;;;;;;-145.14;100.00;70583.66;4990180;28;21253;-78
2022/11/06 05:01:49;;;;;;;8.90;5.67;;;;;;;-145.14;100.00;70583.66;5004321;28;20473;-79
2022/11/06 05:04:21;;;;;;;7.37;5.37;;;;;;;-145.14;100.00;70583.66;4994367;28;21030;-78
2022/11/06 05:06:58;;;;;;;14.10;6.47;;;;;;;-145.14;100.00;70583.66;4986120;28;20496;-79
2022/11/06 05:09:31;;;;;;;11.03;6.10;;;;;;;-145.14;100.00;70583.66;4986829;28;20446;-78
2022/11/06 05:12:01;;;;;;;9.87;4.97;;;;;;;-145.14;100.00;70583.66;5005650;28;20823;-79
2022/11/06 05:14:31;;;;;;;13.50;5.17;;;;;;;-145.14;100.00;70583.66;5001028;28;20513;-78
2022/11/06 05:16:59;;;;;;;11.10;6.40;;;;;;;-145.14;100.00;70583.66;4984873;28;20462;-79
2022/11/06 05:19:28;;;;;;;10.90;4.93;;;;;;;-145.14;100.00;70583.66;4990054;28;20455;-78
2022/11/06 05:24:42;;;;;;;9.63;4.83;;;;;;;-145.14;100.00;70583.66;5013713;28;20959;-79
2022/11/06 05:27:13;;;;;;;9.43;4.70;;;;;;;-145.14;100.00;70583.66;5001027;28;20577;-78
2022/11/06 05:29:41;;;;;;;5.93;4.43;;;;;;;-145.14;100.00;70583.66;5014295;28;20591;-77
2022/11/06 05:32:14;;;;;;;13.57;5.40;;;;;;;-145.14;100.00;70583.66;4999185;28;20466;-78
2022/11/06 05:34:44;;;;;;;8.10;4.90;;;;;;;-145.14;100.00;70583.66;4994958;28;20844;-78
2022/11/06 05:37:20;;;;;;;10.07;5.10;;;;;;;-145.14;100.00;70583.66;5015719;28;20904;-78
2022/11/06 05:39:50;;;;;;;7.10;4.73;;;;;;;-145.14;100.00;70583.66;4996490;28;20568;-78
2022/11/06 05:42:15;;;;;;;6.87;4.70;;;;;;;-145.14;100.00;70583.66;4999905;28;20448;-78
2022/11/06 05:44:46;;;;;;;10.23;5.10;;;;;;;-145.14;100.00;70583.66;5013813;28;20501;-78
2022/11/06 05:47:15;;;;;;;9.57;4.80;;;;;;;-145.14;100.00;70583.66;4999095;28;20680;-78
2022/11/06 05:49:42;;;;;;;13.47;4.90;;;;;;;-145.14;100.00;70583.66;5007347;28;20463;-78
2022/11/06 05:52:15;;;;;;;11.03;4.00;;;;;;;-145.14;100.00;70583.66;5010122;28;20444;-78
2022/11/06 05:54:51;;;;;;;11.73;4.77;;;;;;;-145.14;100.00;70583.66;5011142;28;20541;-78
2022/11/06 05:57:18;;;;;;;6.23;4.57;;;;;;;-145.14;100.00;70583.66;4994277;28;20435;-79
2022/11/06 05:59:49;;;;;;;13.43;5.33;;;;;;;-145.14;100.00;70583.66;4997847;28;21014;-78
2022/11/06 06:02:16;;;;;;;10.33;4.57;;;;;;;-145.14;100.00;70583.66;5001191;28;20454;-78
2022/11/06 06:04:42;;;;;;;10.70;4.90;;;;;;;-145.14;100.00;70583.66;5012546;28;20557;-79
2022/11/06 06:07:07;;;;;;;8.87;4.50;;;;;;;-145.14;100.00;70583.66;4997035;28;20582;-78
2022/11/06 06:09:40;;;;;;;5.87;4.50;;;;;;;-145.14;100.00;70583.66;5012483;28;20197;-78
2022/11/06 06:12:13;;;;;;;12.80;4.57;;;;;;;-145.14;100.00;70583.66;4998103;28;20191;-78
2022/11/06 06:14:45;;;;;;;13.17;4.83;;;;;;;-145.14;100.00;70583.66;5013988;28;20975;-79
2022/11/06 06:17:10;;;;;;;11.03;4.20;;;;;;;-145.14;100.00;70583.66;4997168;28;20477;-79
2022/11/06 06:19:38;;;;;;;12.87;4.57;;;;;;;-145.14;100.00;70583.66;4999334;28;20507;-78
2022/11/06 06:22:07;;;;;;;9.93;4.47;;;;;;;-145.14;100.00;70583.66;5017577;28;20727;-79
2022/11/06 06:24:34;;;;;;;8.20;4.10;;;;;;;-145.14;100.00;70583.66;5007854;28;20438;-79
2022/11/06 06:27:00;;;;;;;6.37;3.90;;;;;;;-145.14;100.00;70583.66;5007762;28;20462;-79
2022/11/06 06:29:28;;;;;;;11.17;4.60;;;;;;;-145.14;100.00;70583.66;5024641;28;20432;-79
2022/11/06 06:31:54;;;;;;;8.40;4.70;;;;;;;-145.14;100.00;70583.66;5008771;28;20447;-79
2022/11/06 06:34:24;;;;;;;10.10;3.70;;;;;;;-145.14;100.00;70583.66;5008214;28;21017;-79
2022/11/06 06:37:00;;;;;;;7.50;3.70;;;;;;;-145.14;100.00;70583.66;5026858;28;20661;-78
2022/11/06 06:39:28;;;;;;;9.63;3.73;;;;;;;-145.14;100.00;70583.66;5026702;28;20501;-79
2022/11/06 06:41:58;;;;;;;12.50;4.17;;;;;;;-145.14;100.00;70583.66;5010463;28;20442;-79
2022/11/06 06:44:28;;;;;;;6.20;3.80;;;;;;;-145.14;100.00;70583.66;5001430;28;20549;-79
2022/11/06 06:46:56;;;;;;;9.03;3.50;;;;;;;-145.14;100.00;70583.66;5025719;28;20438;-79
2022/11/06 06:49:25;;;;;;;7.90;3.73;;;;;;;-145.14;100.00;70583.66;5015321;28;20444;-79
2022/11/06 06:51:54;;;;;;;6.73;3.50;;;;;;;-145.14;100.00;70583.66;5025243;28;20451;-78
2022/11/06 06:54:22;;;;;;;7.20;3.40;;;;;;;-145.14;100.00;70583.66;5024894;28;20474;-78
2022/11/06 06:56:47;;;;;;;4.73;2.87;;;;;;;-145.14;100.00;70583.66;5007836;28;20442;-79
2022/11/06 06:59:18;;;;;;;7.13;3.33;;;;;;;-145.14;100.00;70583.66;5010030;28;20983;-79
2022/11/06 07:01:48;;;;;;;13.03;4.07;;;;;;;-145.14;100.00;70583.66;5010779;28;20236;-78
2022/11/06 07:04:16;;;;;;;7.97;3.50;;;;;;;-145.14;100.00;70583.66;5010243;28;20888;-78
2022/11/06 07:06:41;;;;;;;9.23;3.23;;;;;;;-145.14;100.00;70583.66;5012585;28;20442;-79
2022/11/06 07:09:10;;;;;;;9.17;3.83;;;;;;;-145.14;100.00;70583.66;5028306;28;20439;-79
2022/11/06 07:11:40;;;;;;;8.43;3.17;;;;;;;-145.14;100.00;70583.66;5011795;28;20270;-78
2022/11/06 07:14:09;;;;;;;6.30;2.93;;;;;;;-145.14;100.00;70583.66;5030248;28;20563;-78
2022/11/06 07:16:35;;;;;;;8.00;3.43;;;;;;;-145.14;100.00;70583.66;5014715;28;20423;-79
2022/11/06 07:19:05;;;;;;;8.77;3.20;;;;;;;-145.14;100.00;70583.66;5011442;28;20446;-79
2022/11/06 07:21:33;;;;;;;13.77;4.10;;;;;;;-145.14;100.00;70583.66;5027286;28;20204;-78
2022/11/06 07:24:02;;;;;;;9.93;2.87;;;;;;;-145.14;100.00;70583.66;5030581;28;20442;-79
2022/11/06 07:26:30;;;;;;;10.70;3.20;;;;;;;-145.14;100.00;70583.66;5007216;28;20534;-79
2022/11/06 07:28:58;;;;;;;7.83;3.17;;;;;;;-145.14;100.00;70583.66;5012365;28;20454;-79
2022/11/06 07:31:28;;;;;;;6.07;3.70;;;;;;;-145.14;100.00;70583.66;5011369;28;20455;-78
2022/11/06 07:33:58;;;;;;;8.23;3.53;;;;;;;-145.14;100.00;70583.66;5029280;28;20419;-79
2022/11/06 07:36:29;;;;;;;12.60;3.57;;;;;;;-145.14;100.00;70583.66;5027697;28;20541;-78
2022/11/06 07:38:57;;;;;;;10.97;3.07;;;;;;;-145.14;100.00;70583.66;5031803;28;20496;-78
2022/11/06 07:41:30;;;;;;;9.30;3.40;;;;;;;-145.14;100.00;70583.66;5026941;28;20463;-79
2022/11/06 07:43:57;;;;;;;14.70;3.77;;;;;;;-145.14;100.00;70583.66;5029921;28;20450;-78
2022/11/06 07:46:26;;;;;;;12.63;3.20;;;;;;;-145.14;100.00;70583.66;5012178;28;20846;-79
2022/11/06 07:48:54;;;;;;;6.63;2.70;;;;;;;-145.14;100.00;70583.66;5028805;28;20864;-79
2022/11/06 07:51:24;;;;;;;8.40;2.67;;;;;;;-145.14;100.00;70583.66;5012055;28;20498;-78
2022/11/06 07:53:49;;;;;;;8.30;2.30;;;;;;;-145.14;100.00;70583.66;5013149;28;20438;-78
2022/11/06 07:56:18;;;;;;;9.83;2.70;;;;;;;-145.14;100.00;70583.66;5010216;28;20447;-79
2022/11/06 07:58:45;;;;;;;6.60;3.03;;;;;;;-145.14;100.00;70583.66;5030589;28;20988;-79
2022/11/06 08:01:16;;;;;;;8.90;3.00;;;;;;;-145.14;100.00;70583.66;5011771;28;20463;-79
2022/11/06 08:03:44;;;;;;;10.70;3.00;;;;;;;-145.14;100.00;70583.66;5030013;28;20477;-79
2022/11/06 08:06:12;;;;;;;11.30;3.47;;;;;;;-145.14;100.00;70583.66;5008240;28;20859;-79
2022/11/06 08:08:38;;;;;;;10.60;3.33;;;;;;;-145.14;100.00;70583.66;5003816;28;20539;-79
2022/11/06 08:11:12;;;;;;;11.73;3.10;;;;;;;-145.14;100.00;70583.66;5008051;28;20991;-79
2022/11/06 08:13:43;;;;;;;8.00;2.70;;;;;;;-145.14;100.00;70583.66;5003509;28;20859;-78
2022/11/06 08:16:17;;;;;;;8.57;2.60;;;;;;;-145.14;100.00;70583.66;5028004;28;20999;-79
2022/11/06 08:18:43;;;;;;;15.73;2.77;;;;;;;-145.14;100.00;70583.66;5008607;28;20461;-79
2022/11/06 08:21:09;;;;;;;10.90;2.40;;;;;;;-145.14;100.00;70583.66;5023904;23;20513;-76
2022/11/06 08:23:35;;;;;;;10.23;2.70;;;;;;;-145.14;100.00;70583.66;5023898;28;20430;-76
2022/11/06 08:26:03;;;;;;;5.87;2.73;;;;;;;-145.14;100.00;70583.66;5023007;28;20634;-78
2022/11/06 08:28:29;;;;;;;8.50;2.73;;;;;;;-145.14;100.00;70583.66;5024050;28;20460;-78
2022/11/06 08:30:54;;;;;;;5.37;2.57;;;;;;;-145.14;100.00;70583.66;5021635;28;20458;-78
2022/11/06 08:33:21;;;;;;;10.67;3.30;;;;;;;-145.14;100.00;70583.66;4999130;28;20642;-76
2022/11/06 08:35:47;;;;;;;7.20;2.33;;;;;;;-145.14;100.00;70583.66;5001639;28;20857;-76
2022/11/06 08:38:12;;;;;;;6.63;2.23;;;;;;;-145.14;100.00;70583.66;4998701;28;20444;-77
2022/11/06 08:40:38;;;;;;;12.27;2.60;;;;;;;-145.14;100.00;70583.66;4991563;28;20272;-76
2022/11/06 08:43:08;;;;;;;6.00;2.47;;;;;;;-145.14;100.00;70583.66;4993368;28;20189;-76
2022/11/06 08:45:38;;;;;;;9.13;2.60;;;;;;;-145.14;100.00;70583.66;5000488;28;20446;-76
2022/11/06 08:48:05;;;;;;;7.53;2.30;;;;;;;-145.14;100.00;70583.66;4994310;28;22057;-78
2022/11/06 08:50:32;;;;;;;5.47;1.70;;;;;;;-145.14;100.00;70583.66;5000099;28;20445;-77
2022/11/06 08:53:03;;;;;;;8.90;2.37;;;;;;;-145.14;100.00;70583.66;4997066;28;20471;-80
2022/11/06 08:55:29;;;;;;;9.77;2.97;;;;;;;-145.14;100.00;70583.66;4997467;28;20491;-75
2022/11/06 08:57:55;;;;;;;5.20;2.30;;;;;;;-145.14;100.00;70583.66;4995967;28;20471;-75
2022/11/06 09:00:22;;;;;;;7.27;2.43;;;;;;;-145.14;100.00;70583.66;4992060;28;20455;-79
2022/11/06 09:02:47;;;;;;;5.07;2.50;;;;;;;-145.14;100.00;70583.66;4996264;28;20855;-79
2022/11/06 09:05:13;;;;;;;8.10;3.73;;;;;;;-145.14;100.00;70583.66;4996550;28;20445;-77
2022/11/06 09:07:38;;;;;;;5.70;2.03;;;;;;;-145.14;100.00;70583.66;4999446;28;20203;-78
2022/11/06 09:10:04;;;;;;;6.60;2.40;;;;;;;-145.14;100.00;70583.66;5000489;28;20266;-78
2022/11/06 09:12:29;;;;;;;7.83;2.20;;;;;;;-145.14;100.00;70583.66;4999183;28;20205;-76
2022/11/06 09:14:55;;;;;;;11.40;2.67;;;;;;;-145.14;100.00;70583.66;4994965;28;20464;-78
2022/11/06 09:17:22;;;;;;;8.77;2.40;;;;;;;-145.14;100.00;70583.66;5000061;28;20189;-78
2022/11/06 09:19:50;;;;;;;7.30;2.40;;;;;;;-145.14;100.00;70583.66;4993418;28;20510;-78
2022/11/06 09:22:15;;;;;;;8.03;2.50;;;;;;;-145.14;100.00;70583.66;5001814;28;20475;-78
2022/11/06 09:24:41;;;;;;;8.80;3.93;;;;;;;-145.14;100.00;70583.66;4992375;28;20458;-75
2022/11/06 09:27:06;;;;;;;7.93;2.30;;;;;;;-145.14;100.00;70583.66;4996201;28;20233;-76
2022/11/06 09:29:31;;;;;;;16.93;2.27;;;;;;;-145.14;100.00;70583.66;4996987;28;20199;-77
2022/11/06 09:31:57;;;;;;;8.00;2.30;;;;;;;-145.14;100.00;70583.66;4995769;28;20204;-74
2022/11/06 09:34:22;;;;;;;6.37;1.80;;;;;;;-145.14;100.00;70583.66;4994302;28;20709;-75
2022/11/06 09:36:48;;;;;;;10.63;3.80;;;;;;;-145.14;100.00;70583.66;5003432;28;20197;-75
2022/11/06 09:39:13;;;;;;;6.30;2.50;;;;;;;-145.14;100.00;70583.66;4996177;28;20217;-75
2022/11/06 09:41:59;;;;;;;5.57;2.33;;;;;;;-145.14;100.00;70583.66;4999276;28;20299;-76
2022/11/06 09:44:43;;;;;;;8.40;2.83;;;;;;;-145.14;100.00;70583.66;5002584;28;20204;-78
2022/11/06 09:47:14;;;;;;;8.67;2.90;;;;;;;-145.14;100.00;70583.66;4999778;28;20769;-79
2022/11/06 09:49:49;;;;;;;8.50;2.73;;;;;;;-145.14;100.00;70583.66;4999594;28;20439;-78
2022/11/06 09:52:30;;;;;;;6.03;2.77;;;;;;;-145.14;100.00;70583.66;5001264;28;20464;-75
2022/11/06 09:55:02;;;;;;;7.30;2.50;;;;;;;-145.14;100.00;70583.66;4999534;28;20471;-75
2022/11/06 09:57:59;;;;;;;9.23;2.40;;;;;;;-145.14;100.00;70583.66;4994724;28;20439;-77
2022/11/06 10:00:24;;;;;;;5.80;2.43;;;;;;;-145.14;100.00;70583.66;4995926;28;20444;-79
2022/11/06 10:02:56;;;;;;;8.47;2.93;;;;;;;-145.14;100.00;70583.66;4996130;28;20924;-77
2022/11/06 10:05:37;;;;;;;12.00;2.60;;;;;;;-145.14;100.00;70583.66;4998307;28;20284;-77
2022/11/06 10:08:14;;;;;;;13.90;3.20;;;;;;;-145.14;100.00;70583.66;4997519;28;20443;-78
2022/11/06 10:10:45;;;;;;;6.37;2.50;;;;;;;-145.14;100.00;70583.66;4992845;28;20990;-77
2022/11/06 10:13:11;;;;;;;6.60;2.40;;;;;;;-145.14;100.00;70583.66;4989899;28;20444;-76
2022/11/06 10:15:46;;;;;;;8.83;2.73;;;;;;;-145.14;100.00;70583.66;5008401;28;20460;-79
2022/11/06 10:18:35;;;;;;;9.60;3.10;;;;;;;-145.14;100.00;70583.66;4994560;28;20676;-81
2022/11/06 10:21:19;;;;;;;15.90;3.00;;;;;;;-145.14;100.00;70583.66;4988933;28;20558;-76
2022/11/06 10:23:50;;;;;;;7.27;2.50;;;;;;;-145.14;100.00;70583.66;5003203;28;20451;-76
2022/11/06 10:26:18;;;;;;;4.80;2.33;;;;;;;-145.14;100.00;70583.66;5002153;28;20486;-77
2022/11/06 10:29:01;;;;;;;7.97;2.67;;;;;;;-145.14;100.00;70583.66;5004419;28;20451;-77
2022/11/06 10:31:36;;;;;;;6.53;2.53;;;;;;;-145.14;100.00;70583.66;5003116;28;20886;-76
2022/11/06 10:34:28;;;;;;;9.60;2.00;;;;;;;-145.14;100.00;70583.66;4998734;28;20447;-75
2022/11/06 10:37:02;;;;;;;7.27;2.40;;;;;;;-145.14;100.00;70583.66;5001777;28;20445;-76
2022/11/06 10:39:34;;;;;;;9.30;2.33;;;;;;;-145.14;100.00;70583.66;4994275;28;20431;-77
2022/11/06 10:42:23;;;;;;;10.73;2.07;;;;;;;-145.14;100.00;70583.66;5001420;28;20471;-78
2022/11/06 10:44:58;;;;;;;7.17;2.80;;;;;;;-145.14;100.00;70583.66;5001832;28;20526;-79
2022/11/06 10:47:37;;;;;;;7.87;2.70;;;;;;;-145.14;100.00;70583.66;4995648;28;20477;-83
2022/11/06 10:50:09;;;;;;;7.23;2.63;;;;;;;-145.14;100.00;70583.66;4999352;28;21061;-79
2022/11/06 10:52:46;;;;;;;7.33;2.90;;;;;;;-145.14;100.00;70583.66;4996252;28;22674;-73
2022/11/06 10:55:18;;;;;;;4.93;2.20;;;;;;;-145.14;100.00;70583.66;4996979;28;20510;-75
2022/11/06 10:57:52;;;;;;;8.53;2.43;;;;;;;-145.14;100.00;70583.66;4999742;28;20454;-78
2022/11/06 11:00:18;;;;;;;5.20;2.20;;;;;;;-145.14;100.00;70583.66;4998355;28;20468;-75
2022/11/06 11:03:18;;;;;;;4.83;2.40;;;;;;;-145.14;100.00;70583.66;5001045;28;20530;-78
2022/11/06 11:05:44;;;;;;;5.60;2.27;;;;;;;-145.14;100.00;70583.66;4973697;28;20189;-77
2022/11/06 11:08:27;;;;;;;7.53;2.03;;;;;;;-145.14;100.00;70583.66;4998202;28;20444;-77
2022/11/06 11:11:01;;;;;;;9.60;2.90;;;;;;;-145.14;100.00;70583.66;5002144;28;20487;-79
2022/11/06 11:13:26;;;;;;;6.53;2.53;;;;;;;-145.14;100.00;70583.66;4999701;28;20811;-78
2022/11/06 11:15:51;;;;;;;8.13;2.70;;;;;;;-145.14;100.00;70583.66;4998383;28;20467;-77
2022/11/06 11:18:30;;;;;;;10.43;2.00;;;;;;;-145.14;100.00;70583.66;5000704;28;20186;-77
2022/11/06 11:21:13;;;;;;;7.60;2.60;;;;;;;-145.14;100.00;70583.66;5000558;28;20928;-77
2022/11/06 11:23:38;;;;;;;5.17;2.57;;;;;;;-145.14;100.00;70583.66;5000880;28;20431;-78
2022/11/06 11:26:24;;;;;;;9.27;2.57;;;;;;;-145.14;100.00;70583.66;5000070;28;20436;-78
2022/11/06 11:28:55;;;;;;;6.63;2.53;;;;;;;-145.14;100.00;70583.66;4992858;28;20267;-76
2022/11/06 11:31:29;;;;;;;9.17;2.63;;;;;;;-145.14;100.00;70583.66;5002631;28;20832;-75
2022/11/06 11:33:57;;;;;;;12.33;2.83;;;;;;;-145.14;100.00;70583.66;5002492;28;20535;-75
2022/11/06 11:36:22;;;;;;;6.40;2.80;;;;;;;-145.14;100.00;70583.66;4992395;28;20440;-74
2022/11/06 11:38:48;;;;;;;6.80;2.40;;;;;;;-145.14;100.00;70583.66;4996919;28;20649;-77
2022/11/06 11:41:21;;;;;;;8.60;3.13;;;;;;;-145.14;100.00;70583.66;5000487;28;20823;-77